הכול
Karratha Airport (Karratha, Western Australia) KTA מזג אוויר
|
Karratha, Western Australia (KTA / YPKA)
שמים בהירים
רוחות קלות |
|
26 °C |
KTA Terminal Area Forecast
| Date | Time (AWST) | Flight Rules | Wind Dir. | Speed | Type | Height AGL (ft) | Visibility | Remarks | ||||||
|---|---|---|---|---|---|---|---|---|---|---|---|---|---|---|
Recent KTA METAR history
| Date | Time (AWST) | Flight Rules | Wind Dir. | Speed | Type | Height AGL (ft) | Visibility | Temp (°C) | Temp (°F) | Dew Point (°C) | Dew Point (°F) | Rel. Humid. | Pressure | Density Altitude | Remarks |
|---|---|---|---|---|---|---|---|---|---|---|---|---|---|---|---|
| 01-ספט | 09:00 | VFR | 260° | 6 kt | 10000 meters | 26° | 78° | 15° | 59° | 51% | 1018 mb | 1,207 ft | |||
| 01-ספט | 08:30 | VFR | 250° | 6 kt | 10000 meters | 25° | 77° | 15° | 59° | 54% | 1018 mb | 1,087 ft | |||
| 01-ספט | 08:00 | VFR | 250° | 7 kt | 10000 meters | 24° | 75° | 14° | 57° | 54% | 1018 mb | 967 ft | |||
| 01-ספט | 07:30 | VFR | 260° | 6 kt | 10000 meters | 23° | 73° | 14° | 57° | 57% | 1018 mb | 847 ft | |||
| 01-ספט | 07:00 | VFR | 250° | 5 kt | 10000 meters | 20° | 68° | 15° | 59° | 73% | 1018 mb | 487 ft | |||
| 01-ספט | 06:30 | VFR | 250° | 4 kt | 10000 meters | 18° | 64° | 11° | 51° | 64% | 1018 mb | 247 ft | |||
| 01-ספט | 06:00 | VFR | 250° | 4 kt | 10000 meters | 19° | 66° | 11° | 51° | 60% | 1018 mb | 367 ft | |||
| 01-ספט | 05:30 | VFR | 240° | 6 kt | 10000 meters | 20° | 68° | 12° | 53° | 60% | 1017 mb | 517 ft | |||
| 01-ספט | 05:00 | VFR | 240° | 7 kt | 10000 meters | 20° | 68° | 12° | 53° | 60% | 1017 mb | 517 ft | |||
| 01-ספט | 04:30 | VFR | 240° | 7 kt | 10000 meters | 20° | 68° | 12° | 53° | 60% | 1017 mb | 517 ft | |||
| 01-ספט | 04:00 | VFR | 230° | 7 kt | 10000 meters | 20° | 68° | 12° | 53° | 60% | 1017 mb | 517 ft | |||
| 01-ספט | 03:30 | VFR | 230° | 5 kt | 10000 meters | 20° | 68° | 14° | 57° | 68% | 1017 mb | 517 ft | |||
| 01-ספט | 03:00 | VFR | 230° | 5 kt | 10000 meters | 20° | 68° | 14° | 57° | 68% | 1017 mb | 517 ft | |||
| 01-ספט | 02:30 | VFR | 250° | 8 kt | 10000 meters | 22° | 71° | 15° | 59° | 65% | 1018 mb | 727 ft | |||
| 01-ספט | 02:00 | VFR | 250° | 9 kt | 10000 meters | 22° | 71° | 15° | 59° | 65% | 1018 mb | 727 ft | |||
| 01-ספט | 01:30 | VFR | 240° | 9 kt | 10000 meters | 22° | 71° | 15° | 59° | 65% | 1018 mb | 727 ft | |||
| 01-ספט | 01:00 | VFR | 240° | 10 kt | 10000 meters | 22° | 71° | 15° | 59° | 65% | 1018 mb | 727 ft | |||
| 01-ספט | 00:30 | VFR | 240° | 9 kt | 10000 meters | 22° | 71° | 15° | 59° | 65% | 1018 mb | 727 ft | |||
| 01-ספט | 00:00 | VFR | 240° | 10 kt | 10000 meters | 23° | 73° | 15° | 59° | 61% | 1019 mb | 818 ft | |||
| 31-אוג | 23:30 | VFR | 240° | 9 kt | 10000 meters | 23° | 73° | 15° | 59° | 61% | 1019 mb | 818 ft | |||
| 31-אוג | 23:00 | VFR | 230° | 11 kt | 10000 meters | 24° | 75° | 16° | 60° | 61% | 1019 mb | 938 ft | |||
| 31-אוג | 22:30 | VFR | 250° | 14 kt | 10000 meters | 24° | 75° | 16° | 60° | 61% | 1019 mb | 938 ft | |||
| 31-אוג | 22:00 | VFR | 250° | 12 kt | 10000 meters | 25° | 77° | 15° | 59° | 54% | 1019 mb | 1,058 ft | |||
| 31-אוג | 21:30 | VFR | 250° | 11 kt | 10000 meters | 25° | 77° | 15° | 59° | 54% | 1019 mb | 1,058 ft |
כניסה לאתר
| אין תמיכה בדפדפן שלך. שדרג את הדפדפן שלך |
